createdAt,value
2018-12-02T00:01:02.484Z,970.7
2018-12-02T00:02:03.748Z,970.5
2018-12-02T00:03:07.849Z,970.4
2018-12-02T00:04:09.296Z,970.6
2018-12-02T00:05:10.573Z,970.5
2018-12-02T00:06:11.845Z,970.4
2018-12-02T00:07:13.142Z,970.5
2018-12-02T00:08:14.463Z,970.5
2018-12-02T00:09:15.757Z,970.6
2018-12-02T00:10:19.600Z,970.6
2018-12-02T00:11:20.874Z,970.5
2018-12-02T00:12:22.151Z,970.5
2018-12-02T00:13:23.460Z,970.5
2018-12-02T00:14:24.723Z,970.5
2018-12-02T00:15:26.193Z,970.5
2018-12-02T00:16:27.454Z,970.5
2018-12-02T00:17:28.713Z,970.5
2018-12-02T00:18:30.019Z,970.6
2018-12-02T00:19:31.327Z,970.4
2018-12-02T00:20:32.592Z,970.4
2018-12-02T00:21:33.920Z,970.4
2018-12-02T00:22:35.151Z,970.5
2018-12-02T00:23:36.454Z,970.4
2018-12-02T00:24:37.725Z,970.4
2018-12-02T00:25:39.005Z,970.4
2018-12-02T00:26:40.268Z,970.3
2018-12-02T00:27:41.526Z,970.3
2018-12-02T00:28:42.802Z,970.2
2018-12-02T00:29:44.070Z,970.3
2018-12-02T00:30:45.352Z,970.2
2018-12-02T00:31:46.680Z,970.3
2018-12-02T00:32:53.740Z,970
2018-12-02T00:33:55.312Z,970.2
2018-12-02T00:34:56.601Z,970.2
2018-12-02T00:35:57.856Z,970.1
2018-12-02T00:36:59.119Z,970.2
2018-12-02T00:38:00.437Z,970.1
2018-12-02T00:39:01.783Z,970.1
2018-12-02T00:40:03.049Z,970
2018-12-02T00:41:04.335Z,969.9
2018-12-02T00:42:07.553Z,970
2018-12-02T00:43:11.272Z,970
2018-12-02T00:44:12.580Z,970
2018-12-02T00:45:13.847Z,969.9
2018-12-02T00:46:15.139Z,970.1
2018-12-02T00:47:16.394Z,970
2018-12-02T00:48:17.668Z,970
2018-12-02T00:49:18.992Z,970
2018-12-02T00:50:20.328Z,970
2018-12-02T00:51:21.623Z,969.8
2018-12-02T00:52:28.567Z,969.9
2018-12-02T00:53:29.940Z,970
2018-12-02T00:54:31.242Z,970
2018-12-02T00:55:32.576Z,970
2018-12-02T00:56:33.834Z,970
2018-12-02T00:57:35.118Z,969.9
2018-12-02T00:58:36.660Z,969.9
2018-12-02T00:59:37.957Z,969.9
2018-12-02T01:00:39.208Z,969.9
2018-12-02T01:01:40.786Z,970
2018-12-02T01:02:42.271Z,969.7
2018-12-02T01:03:43.560Z,969.9
2018-12-02T01:04:44.864Z,969.9
2018-12-02T01:05:46.121Z,969.8
2018-12-02T01:06:47.392Z,969.7
2018-12-02T01:07:48.661Z,969.7
2018-12-02T01:08:49.910Z,969.7
2018-12-02T01:09:51.177Z,969.5
2018-12-02T01:10:52.431Z,969.7
2018-12-02T01:11:53.693Z,969.7
2018-12-02T01:12:54.988Z,969.7
2018-12-02T01:13:59.624Z,969.5
2018-12-02T01:15:00.940Z,969.8
2018-12-02T01:16:02.216Z,969.8
2018-12-02T01:17:07.578Z,969.8
2018-12-02T01:18:08.889Z,969.8
2018-12-02T01:19:10.168Z,969.9
2018-12-02T01:20:11.457Z,969.7
2018-12-02T01:21:13.934Z,969.9
2018-12-02T01:22:15.196Z,969.9
2018-12-02T01:23:16.527Z,969.9
2018-12-02T01:24:17.808Z,969.8
2018-12-02T01:25:19.089Z,969.7
2018-12-02T01:26:20.340Z,969.9
2018-12-02T01:27:21.619Z,970
2018-12-02T01:28:22.887Z,969.8
2018-12-02T01:29:24.172Z,969.9
2018-12-02T01:30:25.467Z,969.9
2018-12-02T01:31:26.846Z,969.8
2018-12-02T01:32:34.303Z,969.9
2018-12-02T01:33:35.562Z,969.9
2018-12-02T01:34:36.843Z,969.9
2018-12-02T01:35:38.218Z,969.9
2018-12-02T01:36:39.459Z,969.8
2018-12-02T01:37:40.739Z,969.7
2018-12-02T01:38:42.012Z,969.9
2018-12-02T01:39:43.277Z,969.8
2018-12-02T01:40:44.568Z,969.9
2018-12-02T01:41:45.838Z,969.8
2018-12-02T01:42:47.091Z,969.9
2018-12-02T01:43:48.376Z,969.8
2018-12-02T01:44:49.644Z,969.8
2018-12-02T01:45:50.947Z,969.9
2018-12-02T01:46:52.197Z,969.8
2018-12-02T01:47:53.526Z,969.7
2018-12-02T01:48:54.803Z,969.7
2018-12-02T01:49:56.123Z,969.5
2018-12-02T01:50:57.427Z,969.8
2018-12-02T01:51:58.788Z,969.6
2018-12-02T01:53:00.033Z,969.7
2018-12-02T01:54:01.275Z,969.6
2018-12-02T01:55:02.551Z,969.6
2018-12-02T01:56:04.152Z,969.5
2018-12-02T01:57:05.396Z,969.5
2018-12-02T01:58:06.655Z,969.6
2018-12-02T01:59:07.916Z,969.4
2018-12-02T02:00:09.173Z,969.5
2018-12-02T02:01:10.492Z,969.4
2018-12-02T02:02:14.227Z,969.4
2018-12-02T02:03:15.477Z,969.3
2018-12-02T02:04:19.187Z,969.3
2018-12-02T02:05:20.440Z,969.4
2018-12-02T02:06:21.968Z,969.4
2018-12-02T02:07:23.235Z,969.4
2018-12-02T02:08:24.477Z,969.3
2018-12-02T02:09:25.944Z,969.3
2018-12-02T02:10:27.219Z,969.2
2018-12-02T02:11:28.545Z,969.2
2018-12-02T02:12:29.800Z,969.2
2018-12-02T02:13:35.495Z,969.2
2018-12-02T02:14:36.753Z,969.1
2018-12-02T02:15:38.040Z,969
2018-12-02T02:16:39.320Z,969.1
2018-12-02T02:17:40.581Z,969.1
2018-12-02T02:18:41.827Z,969
2018-12-02T02:19:43.078Z,969
2018-12-02T02:20:44.341Z,969
2018-12-02T02:21:45.644Z,969
2018-12-02T02:22:47.017Z,969
2018-12-02T02:23:48.292Z,969
2018-12-02T02:24:49.561Z,969
2018-12-02T02:25:50.839Z,969
2018-12-02T02:26:52.455Z,968.9
2018-12-02T02:27:53.705Z,969
2018-12-02T02:28:54.978Z,969
2018-12-02T02:29:56.222Z,969
2018-12-02T02:30:57.489Z,968.9
2018-12-02T02:31:58.768Z,968.8
2018-12-02T02:33:00.068Z,968.9
2018-12-02T02:34:02.582Z,968.7
2018-12-02T02:35:06.457Z,968.8
2018-12-02T02:36:07.740Z,968.6
2018-12-02T02:37:09.088Z,968.7
2018-12-02T02:38:10.393Z,968.7
2018-12-02T02:39:11.640Z,968.7
2018-12-02T02:40:12.908Z,968.7
2018-12-02T02:41:14.283Z,968.5
2018-12-02T02:42:15.607Z,968.6
2018-12-02T02:43:18.046Z,968.5
2018-12-02T02:44:19.323Z,968.6
2018-12-02T02:45:20.579Z,968.4
2018-12-02T02:46:25.276Z,968.4
2018-12-02T02:47:27.983Z,968.5
2018-12-02T02:48:29.244Z,968.4
2018-12-02T02:49:30.524Z,968.4
2018-12-02T02:50:32.619Z,968.3
2018-12-02T02:51:35.385Z,968.4
2018-12-02T02:52:37.012Z,968.3
2018-12-02T02:53:38.300Z,968.4
2018-12-02T02:54:39.566Z,968.4
2018-12-02T02:55:40.825Z,968.3
2018-12-02T02:56:42.083Z,968.4
2018-12-02T02:57:43.381Z,968.4
2018-12-02T02:58:44.629Z,968.5
2018-12-02T02:59:45.878Z,968.1
2018-12-02T03:00:47.145Z,968.4
2018-12-02T03:01:48.405Z,968.5
2018-12-02T03:02:49.668Z,968.5
2018-12-02T03:03:50.950Z,968.4
2018-12-02T03:04:52.215Z,968.4
2018-12-02T03:05:53.492Z,968.3
2018-12-02T03:06:54.753Z,968.2
2018-12-02T03:07:56.129Z,968.3
2018-12-02T03:08:57.407Z,968.3
2018-12-02T03:09:58.675Z,968.3
2018-12-02T03:10:59.923Z,968.3
2018-12-02T03:12:01.202Z,968.1
2018-12-02T03:13:05.797Z,968.3
2018-12-02T03:14:07.075Z,968.3
2018-12-02T03:15:08.339Z,968.1
2018-12-02T03:16:09.599Z,968
2018-12-02T03:17:10.859Z,968.1
2018-12-02T03:18:12.150Z,968.1
2018-12-02T03:19:13.400Z,968.2
2018-12-02T03:20:14.660Z,968.1
2018-12-02T03:21:15.919Z,968
2018-12-02T03:22:17.170Z,968.1
2018-12-02T03:23:18.461Z,968.1
2018-12-02T03:24:19.723Z,968
2018-12-02T03:25:23.992Z,968.1
2018-12-02T03:26:25.259Z,968.1
2018-12-02T03:27:26.517Z,968
2018-12-02T03:28:27.832Z,967.9
2018-12-02T03:29:29.134Z,967.9
2018-12-02T03:30:30.419Z,967.7
2018-12-02T03:31:31.677Z,967.9
2018-12-02T03:32:32.950Z,967.9
2018-12-02T03:33:34.255Z,967.8
2018-12-02T03:34:36.781Z,967.8
2018-12-02T03:35:38.048Z,967.8
2018-12-02T03:36:39.319Z,967.8
2018-12-02T03:37:40.577Z,967.5
2018-12-02T03:38:41.882Z,967.8
2018-12-02T03:39:43.124Z,967.9
2018-12-02T03:40:44.390Z,967.9
2018-12-02T03:41:45.649Z,967.9
2018-12-02T03:42:46.916Z,967.9
2018-12-02T03:43:48.228Z,967.8
2018-12-02T03:44:50.065Z,967.9
2018-12-02T03:45:51.342Z,967.8
2018-12-02T03:46:52.621Z,967.7
2018-12-02T03:47:53.897Z,967.7
2018-12-02T03:48:55.254Z,967.7
2018-12-02T03:49:56.803Z,967.7
2018-12-02T03:51:00.440Z,967.7
2018-12-02T03:52:01.696Z,967.6
2018-12-02T03:53:02.976Z,967.6
2018-12-02T03:54:04.288Z,967.6
2018-12-02T03:55:05.578Z,967.6
2018-12-02T03:56:06.848Z,967.7
2018-12-02T03:57:08.327Z,967.7
2018-12-02T03:58:09.588Z,967.6
2018-12-02T03:59:10.887Z,967.6
2018-12-02T04:00:12.140Z,967.5
2018-12-02T04:01:13.388Z,967.6
2018-12-02T04:02:14.636Z,967.6
2018-12-02T04:03:19.497Z,967.6
2018-12-02T04:04:20.795Z,967.7
2018-12-02T04:05:22.080Z,967.7
2018-12-02T04:06:23.368Z,967.6
2018-12-02T04:07:24.635Z,967.6
2018-12-02T04:08:25.943Z,967.5
2018-12-02T04:09:27.516Z,967.6
2018-12-02T04:10:28.780Z,967.5
2018-12-02T04:11:30.052Z,967.6
2018-12-02T04:12:31.540Z,967.5
2018-12-02T04:13:32.804Z,967.4
2018-12-02T04:14:42.269Z,967.4
2018-12-02T04:15:43.537Z,967.4
2018-12-02T04:16:44.875Z,967.5
2018-12-02T04:17:46.148Z,967.5
2018-12-02T04:18:47.406Z,967.6
2018-12-02T04:19:48.716Z,967.4
2018-12-02T04:20:49.971Z,967.6
2018-12-02T04:21:52.113Z,967.7
2018-12-02T04:22:54.874Z,967.6
2018-12-02T04:23:56.159Z,967.5
2018-12-02T04:24:57.765Z,967.5
2018-12-02T04:25:59.028Z,967.5
2018-12-02T04:27:00.277Z,967.5
2018-12-02T04:28:01.604Z,967.4
2018-12-02T04:29:03.092Z,967.5
2018-12-02T04:30:04.413Z,967.5
2018-12-02T04:31:05.689Z,967.4
2018-12-02T04:32:06.964Z,967.4
2018-12-02T04:33:08.245Z,967.4
2018-12-02T04:34:09.500Z,967.4
2018-12-02T04:35:10.828Z,967.3
2018-12-02T04:36:12.144Z,967.2
2018-12-02T04:37:13.396Z,967.2
2018-12-02T04:38:14.697Z,967
2018-12-02T04:39:15.947Z,967.2
2018-12-02T04:40:17.257Z,967.1
2018-12-02T04:41:18.491Z,967.3
2018-12-02T04:42:19.773Z,967.3
2018-12-02T04:43:21.040Z,967.3
2018-12-02T04:44:22.301Z,967.2
2018-12-02T04:45:23.629Z,967.2
2018-12-02T04:46:24.880Z,967.3
2018-12-02T04:47:26.182Z,967
2018-12-02T04:48:27.434Z,967.3
2018-12-02T04:49:28.704Z,967.2
2018-12-02T04:50:29.989Z,967.3
2018-12-02T04:51:33.167Z,967.2
2018-12-02T04:52:34.410Z,967.1
2018-12-02T04:53:35.662Z,967.3
2018-12-02T04:54:36.904Z,967.3
2018-12-02T04:55:38.202Z,967.3
2018-12-02T04:56:42.461Z,967.3
2018-12-02T04:57:43.726Z,967.2
2018-12-02T04:58:48.038Z,967.3
2018-12-02T04:59:49.342Z,967.3
2018-12-02T05:00:52.324Z,967.2
2018-12-02T05:01:53.593Z,967
2018-12-02T05:02:54.848Z,967.1
2018-12-02T05:03:56.141Z,967.1
2018-12-02T05:04:57.412Z,967.2
2018-12-02T05:05:58.715Z,967.1
2018-12-02T05:06:59.971Z,967.2
2018-12-02T05:08:08.000Z,967.1
2018-12-02T05:09:09.262Z,967.1
2018-12-02T05:10:10.531Z,967.1
2018-12-02T05:11:11.831Z,967.1
2018-12-02T05:12:13.112Z,967.1
2018-12-02T05:13:14.368Z,967.1
2018-12-02T05:14:15.631Z,967.1
2018-12-02T05:15:16.908Z,967
2018-12-02T05:17:31.950Z,967.1
2018-12-02T05:18:33.238Z,967
2018-12-02T05:19:34.496Z,967
2018-12-02T05:20:35.754Z,967
2018-12-02T05:21:37.020Z,966.9
2018-12-02T05:22:38.307Z,967
2018-12-02T05:23:39.564Z,966.8
2018-12-02T05:24:40.853Z,966.9
2018-12-02T05:25:42.106Z,966.9
2018-12-02T05:26:43.371Z,966.9
2018-12-02T05:27:44.839Z,966.7
2018-12-02T05:28:46.296Z,966.9
2018-12-02T05:29:47.792Z,966.8
2018-12-02T05:30:49.060Z,966.8
2018-12-02T05:31:50.311Z,966.8
2018-12-02T05:32:51.656Z,966.8
2018-12-02T05:33:52.911Z,966.7
2018-12-02T05:34:54.195Z,966.7
2018-12-02T05:35:55.615Z,966.7
2018-12-02T05:36:56.869Z,966.7
2018-12-02T05:37:58.145Z,966.8
2018-12-02T05:38:59.398Z,966.8
2018-12-02T05:40:00.642Z,966.8
2018-12-02T05:41:01.906Z,966.8
2018-12-02T05:42:03.153Z,966.6
2018-12-02T05:43:04.723Z,966.6
2018-12-02T05:44:05.975Z,966.6
2018-12-02T05:45:08.600Z,966.6
2018-12-02T05:46:12.530Z,966.5
2018-12-02T05:47:13.764Z,966.7
2018-12-02T05:48:15.311Z,966.6
2018-12-02T05:49:16.551Z,966.4
2018-12-02T05:50:17.821Z,966.4
2018-12-02T05:51:19.120Z,966.5
2018-12-02T05:52:20.416Z,966.4
2018-12-02T05:53:21.727Z,966.3
2018-12-02T05:54:23.006Z,966.3
2018-12-02T05:55:24.260Z,966.3
2018-12-02T05:56:25.537Z,966.2
2018-12-02T05:57:26.791Z,966.3
2018-12-02T05:58:28.097Z,966.3
2018-12-02T05:59:29.560Z,966.3
2018-12-02T06:00:30.789Z,966.3
2018-12-02T06:01:32.087Z,966.2
2018-12-02T06:02:33.584Z,966
2018-12-02T06:03:34.921Z,966
2018-12-02T06:04:36.228Z,966.1
2018-12-02T06:05:37.500Z,966.1
2018-12-02T06:06:38.743Z,966.2
2018-12-02T06:07:40.020Z,966.2
2018-12-02T06:08:41.314Z,966.2
2018-12-02T06:09:42.568Z,966.1
2018-12-02T06:10:43.823Z,966.2
2018-12-02T06:11:45.088Z,966.2
2018-12-02T06:12:46.555Z,966.1
2018-12-02T06:13:47.857Z,966.1
2018-12-02T06:14:49.156Z,966.2
2018-12-02T06:15:50.396Z,966.1
2018-12-02T06:16:51.649Z,966.1
2018-12-02T06:17:52.893Z,966.1
2018-12-02T06:18:54.192Z,966.1
2018-12-02T06:19:55.504Z,965.9
2018-12-02T06:20:56.784Z,966
2018-12-02T06:21:58.045Z,966.1
2018-12-02T06:22:59.307Z,966
2018-12-02T06:24:00.689Z,965.9
2018-12-02T06:25:01.943Z,966
2018-12-02T06:26:03.232Z,965.9
2018-12-02T06:27:04.485Z,966
2018-12-02T06:28:05.763Z,966
2018-12-02T06:29:07.061Z,966
2018-12-02T06:30:08.312Z,965.9
2018-12-02T06:31:09.580Z,966
2018-12-02T06:32:10.880Z,965.9
2018-12-02T06:33:12.136Z,965.9
2018-12-02T06:34:13.430Z,965.9
2018-12-02T06:35:14.682Z,965.8
2018-12-02T06:36:15.927Z,965.9
2018-12-02T06:37:17.234Z,965.9
2018-12-02T06:38:18.486Z,965.8
2018-12-02T06:39:19.797Z,965.8
2018-12-02T06:40:21.052Z,965.8
2018-12-02T06:41:22.356Z,965.7
2018-12-02T06:42:23.647Z,965.8
2018-12-02T06:43:24.922Z,965.8
2018-12-02T06:44:26.215Z,965.8
2018-12-02T06:45:27.483Z,965.7
2018-12-02T06:46:28.918Z,965.7
2018-12-02T06:47:30.319Z,965.8
2018-12-02T06:49:40.992Z,965.8
2018-12-02T06:50:42.301Z,965.8
2018-12-02T06:51:43.561Z,965.7
2018-12-02T06:52:44.825Z,965.8
2018-12-02T06:53:46.088Z,965.7
2018-12-02T06:54:47.366Z,965.6
2018-12-02T06:55:49.132Z,965.7
2018-12-02T06:56:50.399Z,965.7
2018-12-02T06:57:51.657Z,965.6
2018-12-02T06:58:52.906Z,965.6
2018-12-02T06:59:54.257Z,965.4
2018-12-02T07:00:55.507Z,965.6
2018-12-02T07:01:56.770Z,965.6
2018-12-02T07:02:58.324Z,965.7
2018-12-02T07:03:59.583Z,965.5
2018-12-02T07:05:00.924Z,965.5
2018-12-02T07:06:02.194Z,965.5
2018-12-02T07:07:03.441Z,965.6
2018-12-02T07:08:04.699Z,965.6
2018-12-02T07:09:08.384Z,965.3
2018-12-02T07:10:10.241Z,965.6
2018-12-02T07:11:11.506Z,965.5
2018-12-02T07:12:12.760Z,965.6
2018-12-02T07:13:14.013Z,965.6
2018-12-02T07:14:15.623Z,965.4
2018-12-02T07:15:16.939Z,965.6
2018-12-02T07:16:18.192Z,965.6
2018-12-02T07:17:19.442Z,965.5
2018-12-02T07:18:21.204Z,965.6
2018-12-02T07:19:22.552Z,965.5
2018-12-02T07:20:23.831Z,965.5
2018-12-02T07:21:25.124Z,965.5
2018-12-02T07:22:26.386Z,965.4
2018-12-02T07:23:27.637Z,965.4
2018-12-02T07:24:28.903Z,965.4
2018-12-02T07:25:30.213Z,965.4
2018-12-02T07:26:31.484Z,965.2
2018-12-02T07:27:35.569Z,965.3
2018-12-02T07:28:36.860Z,965.5
2018-12-02T07:29:38.332Z,965.3
2018-12-02T07:30:39.869Z,965.4
2018-12-02T07:31:41.155Z,965.1
2018-12-02T07:32:42.412Z,965.4
2018-12-02T07:33:43.672Z,965.4
2018-12-02T07:34:44.948Z,965.4
2018-12-02T07:35:46.287Z,965.4
2018-12-02T07:36:50.180Z,965.3
2018-12-02T07:37:51.408Z,965.4
2018-12-02T07:38:52.676Z,965.3
2018-12-02T07:39:56.403Z,965.3
2018-12-02T07:40:57.712Z,965.2
2018-12-02T07:41:58.992Z,965.3
2018-12-02T07:43:00.242Z,965.2
2018-12-02T07:44:01.496Z,965.2
2018-12-02T07:45:02.748Z,965.1
2018-12-02T07:46:04.059Z,965.2
2018-12-02T07:47:05.321Z,965.2
2018-12-02T07:48:07.913Z,965.3
2018-12-02T07:49:09.201Z,965.2
2018-12-02T07:50:10.463Z,965.2
2018-12-02T07:51:11.753Z,965.3
2018-12-02T07:52:13.005Z,965.2
2018-12-02T07:53:14.276Z,965.3
2018-12-02T07:54:15.753Z,965.2
2018-12-02T07:55:17.010Z,965.2
2018-12-02T07:56:24.487Z,965
2018-12-02T07:57:25.800Z,965.2
2018-12-02T07:58:27.084Z,965.3
2018-12-02T07:59:28.377Z,965.2
2018-12-02T08:00:29.640Z,965.2
2018-12-02T08:01:31.261Z,965.1
2018-12-02T08:02:32.515Z,965.1
2018-12-02T08:03:33.790Z,965.1
2018-12-02T08:04:37.103Z,965.1
2018-12-02T08:05:39.839Z,965.1
2018-12-02T08:06:41.155Z,965.1
2018-12-02T08:07:42.409Z,965.1
2018-12-02T08:08:43.696Z,965.1
2018-12-02T08:09:45.300Z,965.2
2018-12-02T08:10:46.594Z,965.1
2018-12-02T08:11:47.894Z,965.1
2018-12-02T08:12:49.213Z,965
2018-12-02T08:13:56.358Z,965
2018-12-02T08:14:57.617Z,965
2018-12-02T08:15:59.088Z,965.1
2018-12-02T08:17:00.397Z,965
2018-12-02T08:18:01.682Z,964.9
2018-12-02T08:19:02.960Z,964.2
2018-12-02T08:20:04.242Z,965
2018-12-02T08:21:05.558Z,964.9
2018-12-02T08:22:06.888Z,964.8
2018-12-02T08:23:08.167Z,965
2018-12-02T08:24:09.428Z,964.9
2018-12-02T08:25:12.871Z,964.9
2018-12-02T08:26:14.466Z,964.8
2018-12-02T08:27:15.793Z,964.8
2018-12-02T08:28:17.152Z,964.8
2018-12-02T08:29:18.426Z,964.7
2018-12-02T08:30:20.477Z,964.8
2018-12-02T08:31:21.814Z,964.8
2018-12-02T08:32:25.229Z,964.7
2018-12-02T08:33:26.521Z,964.7
2018-12-02T08:34:27.810Z,964.7
2018-12-02T08:35:29.064Z,964.8
2018-12-02T08:36:30.322Z,964.8
2018-12-02T08:37:31.609Z,964.9
2018-12-02T08:38:32.954Z,964.8
2018-12-02T08:39:34.308Z,964.8
2018-12-02T08:40:35.576Z,964.7
2018-12-02T08:41:36.839Z,964.8
2018-12-02T08:42:38.154Z,964.7
2018-12-02T08:43:39.407Z,964.8
2018-12-02T08:44:40.655Z,964.8
2018-12-02T08:45:41.921Z,964.9
2018-12-02T08:46:43.293Z,964.7
2018-12-02T08:47:44.637Z,964.6
2018-12-02T08:48:46.720Z,964.7
2018-12-02T08:49:47.992Z,964.8
2018-12-02T08:50:49.279Z,964.8
2018-12-02T08:51:50.533Z,964.7
2018-12-02T08:52:52.417Z,964.8
2018-12-02T08:53:53.708Z,964.8
2018-12-02T08:54:54.981Z,964.9
2018-12-02T08:55:56.608Z,964.8
2018-12-02T08:56:57.913Z,964.8
2018-12-02T08:57:59.230Z,964.8
2018-12-02T08:59:00.545Z,964.8
2018-12-02T09:00:01.911Z,964.8
2018-12-02T09:01:03.231Z,964.8
2018-12-02T09:02:05.927Z,964.8
2018-12-02T09:03:10.243Z,964.8
2018-12-02T09:04:11.492Z,964.8
2018-12-02T09:06:25.645Z,964.8
2018-12-02T09:07:28.880Z,964.7
2018-12-02T09:08:30.197Z,964.8
2018-12-02T09:09:32.989Z,964.8
2018-12-02T09:10:34.274Z,964.7
2018-12-02T09:11:35.826Z,964.7
2018-12-02T09:13:53.593Z,964.7
2018-12-02T09:14:54.941Z,964.8
2018-12-02T09:15:56.216Z,964.8
2018-12-02T09:17:04.273Z,964.5
2018-12-02T09:18:05.548Z,964.7
2018-12-02T09:19:06.863Z,964.7
2018-12-02T09:20:11.197Z,964.7
2018-12-02T09:21:15.105Z,964.8
2018-12-02T09:22:16.628Z,964.8
2018-12-02T09:23:19.129Z,964.8
2018-12-02T09:24:20.448Z,964.8
2018-12-02T09:25:22.290Z,964.7
2018-12-02T09:26:24.891Z,964.7
2018-12-02T09:27:26.162Z,964.7
2018-12-02T09:28:27.413Z,964.7
2018-12-02T09:29:28.758Z,964.8
2018-12-02T09:30:30.620Z,964.7
2018-12-02T09:31:31.929Z,964.6
2018-12-02T09:32:36.250Z,964.7
2018-12-02T09:33:37.794Z,964.6
2018-12-02T09:34:39.607Z,964.5
2018-12-02T09:35:43.425Z,964.6
2018-12-02T09:36:44.763Z,964.5
2018-12-02T09:37:49.272Z,964.6
2018-12-02T09:38:50.813Z,964.6
2018-12-02T09:39:55.312Z,964.5
2018-12-02T09:40:56.581Z,964.5
2018-12-02T09:42:02.156Z,964.5
2018-12-02T09:43:03.617Z,964.5
2018-12-02T09:44:07.303Z,964.4
2018-12-02T09:45:09.809Z,964.4
2018-12-02T09:46:11.443Z,964.4
2018-12-02T09:47:12.736Z,964.4
2018-12-02T09:48:17.895Z,964.3
2018-12-02T09:49:19.303Z,964.3
2018-12-02T09:50:20.866Z,964.3
2018-12-02T09:51:23.034Z,964.3
2018-12-02T09:52:27.643Z,964.3
2018-12-02T09:53:31.532Z,964.2
2018-12-02T09:54:33.986Z,964.2
2018-12-02T09:55:35.605Z,964.2
2018-12-02T09:56:47.833Z,964.2
2018-12-02T09:57:55.306Z,964.2
2018-12-02T09:58:56.808Z,964.1
2018-12-02T09:59:59.604Z,964.1
2018-12-02T10:01:00.904Z,964.1
2018-12-02T10:02:02.484Z,964.1
2018-12-02T10:03:04.145Z,964.1
2018-12-02T10:04:05.530Z,964.1
2018-12-02T10:05:09.291Z,964
2018-12-02T10:06:10.786Z,964
2018-12-02T10:07:12.494Z,964.1
2018-12-02T10:08:16.159Z,964
2018-12-02T10:09:21.700Z,964.1
2018-12-02T10:10:23.964Z,963.9
2018-12-02T10:11:26.120Z,964
2018-12-02T10:12:29.809Z,964.1
2018-12-02T10:13:31.293Z,964
2018-12-02T10:14:35.220Z,964
2018-12-02T10:15:38.096Z,964.1
2018-12-02T10:16:39.581Z,964
2018-12-02T10:17:42.302Z,963.9
2018-12-02T10:18:44.154Z,963.9
2018-12-02T10:19:45.766Z,963.9
2018-12-02T10:20:47.300Z,963.9
2018-12-02T10:22:01.291Z,964
2018-12-02T10:23:07.187Z,963.7
2018-12-02T10:24:08.953Z,963.8
2018-12-02T10:25:11.936Z,964
2018-12-02T10:26:17.787Z,963.9
2018-12-02T10:27:19.118Z,963.9
2018-12-02T10:28:24.351Z,963.7
2018-12-02T10:29:27.175Z,963.7
2018-12-02T10:30:33.404Z,963.7
2018-12-02T10:31:49.113Z,963.8
2018-12-02T10:32:50.512Z,963.7
2018-12-02T10:33:54.184Z,963.8
2018-12-02T10:34:55.488Z,963.6
2018-12-02T10:35:56.740Z,963.7
2018-12-02T10:37:05.139Z,963.9
2018-12-02T10:38:06.505Z,963.8
2018-12-02T10:39:10.265Z,963.8
2018-12-02T10:40:11.558Z,963.8
2018-12-02T10:41:12.851Z,963.8
2018-12-02T10:42:16.410Z,963.7
2018-12-02T10:43:20.633Z,963.8
2018-12-02T10:44:22.168Z,963.7
2018-12-02T10:45:23.439Z,963.7
2018-12-02T10:46:24.745Z,963.8
2018-12-02T10:47:26.286Z,963.6
2018-12-02T10:48:27.898Z,963.8
2018-12-02T10:49:30.513Z,963.8
2018-12-02T10:50:33.221Z,963.7
2018-12-02T10:51:34.516Z,963.6
2018-12-02T10:52:39.836Z,963.5
2018-12-02T10:53:46.620Z,963.7
2018-12-02T10:54:48.311Z,963.7
2018-12-02T10:55:49.570Z,963.8
2018-12-02T10:56:54.583Z,963.8
2018-12-02T10:57:56.261Z,963.9
2018-12-02T10:58:57.773Z,963.8
2018-12-02T10:59:59.308Z,963.8
2018-12-02T11:01:00.631Z,963.7
2018-12-02T11:02:02.168Z,963.8
2018-12-02T11:03:06.380Z,963.7
2018-12-02T11:04:08.290Z,963.8
2018-12-02T11:05:09.790Z,963.9
2018-12-02T11:06:11.305Z,963.8
2018-12-02T11:07:13.790Z,963.8
2018-12-02T11:08:17.987Z,963.7
2018-12-02T11:09:23.607Z,963.8
2018-12-02T11:10:25.147Z,963.8
2018-12-02T11:11:29.691Z,963.8
2018-12-02T11:12:38.453Z,963.7
2018-12-02T11:13:53.141Z,963.8
2018-12-02T11:14:56.440Z,963.7
2018-12-02T11:15:58.129Z,963.9
2018-12-02T11:17:00.518Z,963.9
2018-12-02T11:18:02.006Z,964
2018-12-02T11:19:03.721Z,963.8
2018-12-02T11:20:08.157Z,963.8
2018-12-02T11:21:09.617Z,963.8
2018-12-02T11:22:11.139Z,963.8
2018-12-02T11:23:15.503Z,963.7
2018-12-02T11:24:18.566Z,963.9
2018-12-02T11:25:22.246Z,964
2018-12-02T11:26:25.154Z,964
2018-12-02T11:27:29.284Z,963.9
2018-12-02T11:28:31.689Z,963.8
2018-12-02T11:29:35.280Z,963.8
2018-12-02T11:30:36.629Z,963.9
2018-12-02T11:31:37.912Z,963.8
2018-12-02T11:32:44.581Z,963.8
2018-12-02T11:33:45.903Z,963.7
2018-12-02T11:34:49.831Z,963.7
2018-12-02T11:35:54.838Z,963.7
2018-12-02T11:36:58.269Z,963.6
2018-12-02T11:38:15.363Z,963.7
2018-12-02T11:39:16.635Z,963.5
2018-12-02T11:40:18.149Z,963.5
2018-12-02T11:41:19.755Z,963.5
2018-12-02T11:42:24.272Z,963.4
2018-12-02T11:43:25.606Z,963.3
2018-12-02T11:44:26.904Z,963.2
2018-12-02T11:45:34.596Z,963.2
2018-12-02T11:46:38.941Z,963.2
2018-12-02T11:47:43.498Z,963.2
2018-12-02T11:48:44.802Z,963.3
2018-12-02T11:49:48.204Z,963.4
2018-12-02T11:50:50.628Z,963.3
2018-12-02T11:51:52.299Z,963.5
2018-12-02T11:52:53.575Z,963.5
2018-12-02T11:53:54.911Z,963.5
2018-12-02T11:54:58.580Z,963.6
2018-12-02T11:55:59.868Z,963.6
2018-12-02T11:57:03.584Z,963.5
2018-12-02T11:58:07.364Z,963.5
2018-12-02T11:59:12.136Z,963.6
2018-12-02T12:00:16.643Z,963.5
2018-12-02T12:01:20.771Z,963.6
2018-12-02T12:02:22.470Z,963.6
2018-12-02T12:03:26.323Z,963.6
2018-12-02T12:04:33.335Z,963.6
2018-12-02T12:06:55.769Z,963.6
2018-12-02T12:07:59.452Z,963.6
2018-12-02T12:09:01.324Z,963.6
2018-12-02T12:10:02.899Z,963.7
2018-12-02T12:11:04.322Z,963.7
2018-12-02T12:12:16.762Z,963.2
2018-12-02T12:13:18.252Z,963.6
2018-12-02T12:14:19.679Z,963.5
2018-12-02T12:15:21.358Z,963.4
2018-12-02T12:16:22.645Z,963.5
2018-12-02T12:17:24.162Z,963.4
2018-12-02T12:18:27.728Z,963.3
2018-12-02T12:19:29.604Z,963.2
2018-12-02T12:20:33.598Z,963.2
2018-12-02T12:21:34.973Z,963.4
2018-12-02T12:22:36.318Z,963.3
2018-12-02T12:23:40.118Z,963.2
2018-12-02T12:24:41.847Z,963.1
2018-12-02T12:25:44.785Z,963.2
2018-12-02T12:26:52.168Z,963.1
2018-12-02T12:27:54.152Z,963.1
2018-12-02T12:28:55.632Z,963
2018-12-02T12:29:59.983Z,962.9
2018-12-02T12:31:01.280Z,962.9
2018-12-02T12:32:02.570Z,962.8
2018-12-02T12:33:04.252Z,962.8
2018-12-02T12:34:05.588Z,962.8
2018-12-02T12:35:13.706Z,962.8
2018-12-02T12:36:17.594Z,962.8
2018-12-02T12:37:22.810Z,963
2018-12-02T12:38:26.573Z,962.8
2018-12-02T12:39:28.053Z,962.7
2018-12-02T12:40:30.563Z,962.9
2018-12-02T12:41:31.866Z,962.8
2018-12-02T12:42:33.161Z,962.7
2018-12-02T12:43:40.620Z,962.7
2018-12-02T12:44:44.537Z,962.7
2018-12-02T12:45:46.201Z,962.5
2018-12-02T12:46:47.460Z,962.6
2018-12-02T12:47:48.745Z,962.7
2018-12-02T12:48:50.502Z,962.7
2018-12-02T12:49:51.974Z,962.7
2018-12-02T12:50:53.282Z,962.7
2018-12-02T12:51:54.974Z,962.7
2018-12-02T12:52:56.274Z,962.6
2018-12-02T12:53:58.628Z,962.6
2018-12-02T12:54:59.970Z,962.7
2018-12-02T12:56:01.249Z,962.7
2018-12-02T12:57:02.522Z,962.5
2018-12-02T12:58:10.287Z,962.6
2018-12-02T12:59:11.623Z,962.6
2018-12-02T13:00:16.462Z,962.6
2018-12-02T13:01:35.610Z,962.6
2018-12-02T13:02:40.082Z,962.6
2018-12-02T13:03:41.876Z,962.6
2018-12-02T13:04:43.150Z,962.5
2018-12-02T13:05:44.489Z,962.5
2018-12-02T13:06:45.768Z,962.6
2018-12-02T13:07:52.361Z,962.6
2018-12-02T13:08:56.095Z,962.6
2018-12-02T13:09:57.407Z,962.7
2018-12-02T13:10:58.806Z,962.5
2018-12-02T13:12:00.285Z,962.6
2018-12-02T13:13:01.653Z,962.7
2018-12-02T13:14:02.952Z,962.7
2018-12-02T13:15:07.007Z,962.7
2018-12-02T13:16:09.103Z,962.7
2018-12-02T13:17:10.559Z,962.7
2018-12-02T13:18:14.811Z,962.8
2018-12-02T13:19:16.299Z,962.7
2018-12-02T13:20:18.668Z,962.5
2018-12-02T13:21:20.001Z,962.6
2018-12-02T13:22:21.527Z,962.6
2018-12-02T13:23:22.817Z,962.7
2018-12-02T13:24:24.340Z,962.8
2018-12-02T13:25:30.707Z,962.7
2018-12-02T13:26:32.468Z,962.7
2018-12-02T13:27:36.658Z,962.6
2018-12-02T13:28:38.091Z,962.8
2018-12-02T13:29:40.281Z,962.8
2018-12-02T13:30:41.853Z,962.7